Airfield :
LOGIN :

Register | Disclaimer

   EN    FR    IT 

 










Legend :    VFR   Marginal VFR   IFR   Intensive IFR   Very Intensive IFR
Visi :
Ceiling :
>= 8 km
>= 3000ft
5 to 8 km
1000 to 3000 ft
1500m to 5 km
500 to 1000 ft
800 to 1500m
200 to 500 ft
< 800m
< 200 ft
Symbols :   Thunderstorms  Fog  Heavy snow  Heavy precipitations  Wind > 20 kt
SIGMETs :     Misc.  Thunderstorms  Icing  Turbulence  Mountain Waves  Volcanic Ashes






- Airport Elevation : 502 ft
- IATA code : ORK


EICK - Cork

CURRENT METAR :
  • 140700Z 26015KT 9999 FEW017CB 02/M00 Q0988 TEMPO 4000

EXPIRED METARs :
  • 140630Z 26026G37KT 9999 -SHRASN BKN017CB 03/00 Q0988 TEMPO 4000
  • 140600Z 24019KT 9999 FEW018CB SCT030 03/M00 Q0987 NOSIG
  • 140530Z 25013KT 9999 -SHRA SCT018CB SCT100 03/01 Q0987 NOSIG
  • 140500Z 25016KT 9999 SCT018CB BKN060 04/02 Q0987 NOSIG
  • 140430Z 23011KT 9999 SCT018CB BKN070 03/01 Q0987 NOSIG

TAF COR TAF EICK
Valid from the 14 at 06:00 until the 15 at 06:00 UTC


140526Z 1406/1506 25015G25KT 9999 FEW015 BKN035
TEMPO 1406/1410 26020G35KT -SHRA SCT018CB
PROB30 1406/1409 4000 SHRASNGS BKN010
BECMG 1410/1412 23012KT
BECMG 1413/1415 20016G26KT
TEMPO 1414/1416 4000 SHRA BKN005 SCT018CB
BECMG 1416/1418 24013KT
TEMPO 1416/1423 -SHRA SCT018CB
PROB30
TEMPO 1416/1421 4000 SHRAGS BKN010
TEMPO 1418/1421 23016G26KT
PROB30
TEMPO 1420/1423 4000 SHRASNGS BKN010
BECMG 1501/1503 21005KT -RA BKN012
TEMPO 1502/1505 3000 -RADZ BKN005
PROB30
TEMPO 1502/1504 2000 -RASN BKN002



MET'MAP, your aeronautical weather chart ! - Copyright ORBIFLY December 2007 - Disclaimer

ORBIFLY MET'MAP TEAM :

Programming & Development : Alexandra Zaïnal
Concept & original design : Baudouin d'Aumeries
Assistance for programming : Marc-Olivier Méhu
Technical & hardware support : Manuel Goepfert

Contact : metmap@orbifly.com




SOURCES & CREDITS :

   NOAA